Time;durP1;ratioP1;P1;durP2;ratioP2;P2;SDS_P1;SDS_P2;PMS_P1;PMS_P2;Temp;Humidity;BMP_temperature;BMP_pressure;BME280_temperature;BME280_humidity;BME280_pressure;Samples;Min_cycle;Max_cycle;Signal;HPM_P1;HPM_P2
2023/05/12 00:00:10;;;;;;;3.83;1.27;;;19.60;1.00;;;;;;4845966;29;20086;-44
2023/05/12 00:02:37;;;;;;;1.15;0.73;;;19.60;1.00;;;;;;4838174;29;20056;-45
2023/05/12 00:05:04;;;;;;;1.48;0.90;;;19.60;1.00;;;;;;4844919;29;20594;-43
2023/05/12 00:07:31;;;;;;;2.08;1.48;;;19.60;1.00;;;;;;4839194;29;20054;-45
2023/05/12 00:09:58;;;;;;;1.50;0.80;;;19.60;1.00;;;;;;4839286;29;20042;-44
2023/05/12 00:12:25;;;;;;;1.60;1.00;;;19.60;1.00;;;;;;4831555;29;20050;-47
2023/05/12 00:14:52;;;;;;;2.58;0.90;;;19.60;1.00;;;;;;4840594;29;20419;-44
2023/05/12 00:17:18;;;;;;;1.48;0.80;;;19.60;1.00;;;;;;4836630;29;20563;-44
2023/05/12 00:19:45;;;;;;;2.60;0.88;;;19.60;1.00;;;;;;4844845;29;20050;-48
2023/05/12 00:22:14;;;;;;;1.05;0.63;;;19.60;1.00;;;;;;4829220;29;20042;-44
2023/05/12 00:24:41;;;;;;;1.25;0.70;;;19.60;1.00;;;;;;4832553;29;20161;-48
2023/05/12 00:27:07;;;;;;;1.92;1.08;;;19.50;1.00;;;;;;4825160;29;20050;-44
2023/05/12 00:29:35;;;;;;;2.00;0.82;;;19.50;1.00;;;;;;4836699;29;20050;-44
2023/05/12 00:32:02;;;;;;;1.52;0.80;;;19.60;1.00;;;;;;4843627;29;20046;-47
2023/05/12 00:34:29;;;;;;;1.60;0.85;;;19.50;1.00;;;;;;4841485;29;20034;-44
2023/05/12 00:36:56;;;;;;;3.13;1.42;;;19.50;1.00;;;;;;4824965;29;20047;-46
2023/05/12 00:39:23;;;;;;;1.45;0.80;;;19.50;1.00;;;;;;4838338;29;20042;-47
2023/05/12 00:41:55;;;;;;;1.60;0.80;;;19.50;1.00;;;;;;4835888;29;20046;-44
2023/05/12 00:44:22;;;;;;;2.78;0.98;;;19.50;1.00;;;;;;4838429;29;20054;-47
2023/05/12 00:46:50;;;;;;;1.98;1.02;;;19.50;1.00;;;;;;4846388;29;20041;-46
2023/05/12 00:49:18;;;;;;;1.50;0.77;;;19.50;1.00;;;;;;4835023;29;20042;-45
2023/05/12 00:51:45;;;;;;;1.90;0.82;;;19.50;1.00;;;;;;4834115;29;20053;-46
2023/05/12 00:54:12;;;;;;;2.25;1.00;;;19.50;1.00;;;;;;4842532;29;20062;-48
2023/05/12 00:56:39;;;;;;;1.88;0.77;;;19.50;1.00;;;;;;4832867;29;20543;-45
2023/05/12 00:59:07;;;;;;;2.03;0.77;;;19.50;1.00;;;;;;4827577;29;20167;-49
2023/05/12 01:01:37;;;;;;;1.33;0.77;;;19.40;1.00;;;;;;4833929;29;20050;-47
2023/05/12 01:04:04;;;;;;;1.67;0.88;;;19.40;1.00;;;;;;4833414;29;20137;-45
2023/05/12 01:06:38;;;;;;;3.42;1.23;;;19.40;1.00;;;;;;4837441;29;20050;-45
2023/05/12 01:09:07;;;;;;;3.53;1.10;;;19.40;1.00;;;;;;4837662;29;20038;-44
2023/05/12 01:11:34;;;;;;;2.47;1.20;;;19.40;1.00;;;;;;4834619;29;20050;-46
2023/05/12 01:14:01;;;;;;;3.15;1.38;;;19.50;1.00;;;;;;4835229;29;20041;-47
2023/05/12 01:16:35;;;;;;;4.40;1.15;;;19.40;1.00;;;;;;4837176;29;20034;-48
2023/05/12 01:19:06;;;;;;;1.75;1.33;;;19.50;1.00;;;;;;4837498;29;20054;-47
2023/05/12 01:21:34;;;;;;;1.75;0.75;;;19.40;1.00;;;;;;4837904;29;20468;-46
2023/05/12 01:24:06;;;;;;;1.52;0.88;;;19.40;1.00;;;;;;4836619;29;20049;-45
2023/05/12 01:26:33;;;;;;;2.42;1.20;;;19.40;1.00;;;;;;4840399;29;20054;-45
2023/05/12 01:29:01;;;;;;;2.53;1.38;;;19.40;1.00;;;;;;4834144;29;20066;-47
2023/05/12 01:31:28;;;;;;;2.47;1.00;;;19.40;1.00;;;;;;4844089;29;20071;-46
2023/05/12 01:33:56;;;;;;;2.17;0.90;;;19.40;1.00;;;;;;4829887;29;20050;-50
2023/05/12 01:36:23;;;;;;;1.58;1.08;;;19.40;1.00;;;;;;4835270;29;20046;-46
2023/05/12 01:38:50;;;;;;;1.20;0.90;;;19.40;1.00;;;;;;4843757;29;20053;-48
2023/05/12 01:41:17;;;;;;;2.47;0.98;;;19.40;1.00;;;;;;4828195;29;20069;-48
2023/05/12 01:43:44;;;;;;;1.65;0.70;;;19.40;1.00;;;;;;4843498;29;20081;-49
2023/05/12 01:46:12;;;;;;;2.10;0.85;;;19.40;1.00;;;;;;4843474;29;20053;-47
2023/05/12 01:48:40;;;;;;;4.60;1.05;;;19.40;1.00;;;;;;4837325;29;20057;-44
2023/05/12 01:51:08;;;;;;;3.03;1.13;;;19.40;1.00;;;;;;4837132;29;20107;-46
2023/05/12 01:53:35;;;;;;;2.03;1.10;;;19.40;1.00;;;;;;4842316;29;20051;-45
2023/05/12 01:56:02;;;;;;;2.40;1.00;;;19.40;1.00;;;;;;4841500;29;20041;-47
2023/05/12 01:58:31;;;;;;;1.52;0.90;;;19.30;1.00;;;;;;4832810;29;20042;-46
2023/05/12 02:00:59;;;;;;;1.80;0.88;;;19.40;1.00;;;;;;4823276;29;20081;-44
2023/05/12 02:03:26;;;;;;;2.05;0.88;;;19.30;1.00;;;;;;4822160;29;20148;-45
2023/05/12 02:05:55;;;;;;;2.45;1.10;;;19.30;1.00;;;;;;4822131;29;20057;-44
2023/05/12 02:08:22;;;;;;;1.30;0.90;;;19.30;1.00;;;;;;4837218;29;20050;-43
2023/05/12 02:10:50;;;;;;;1.40;1.25;;;19.30;1.00;;;;;;4829567;29;20046;-43
2023/05/12 02:13:16;;;;;;;2.38;0.70;;;19.30;1.00;;;;;;4830637;29;20046;-44
2023/05/12 02:15:43;;;;;;;2.53;1.00;;;19.30;1.00;;;;;;4841363;29;20041;-45
2023/05/12 02:18:10;;;;;;;2.13;1.10;;;19.30;1.00;;;;;;4825031;29;20542;-43
2023/05/12 02:20:38;;;;;;;2.08;1.00;;;19.30;1.00;;;;;;4836397;29;20077;-45
2023/05/12 02:23:05;;;;;;;2.65;0.98;;;19.30;1.00;;;;;;4830815;29;20069;-43
2023/05/12 02:25:32;;;;;;;2.20;0.90;;;19.20;1.00;;;;;;4829222;29;20110;-44
2023/05/12 02:27:59;;;;;;;2.47;0.82;;;19.20;1.00;;;;;;4829584;29;20483;-43
2023/05/12 02:30:25;;;;;;;1.55;0.88;;;19.20;1.00;;;;;;4832338;29;20042;-44
2023/05/12 02:32:52;;;;;;;3.15;1.20;;;19.20;1.00;;;;;;4832481;29;20098;-43
2023/05/12 02:35:20;;;;;;;3.92;1.10;;;19.20;1.00;;;;;;4832312;29;20050;-44
2023/05/12 02:37:46;;;;;;;2.25;0.70;;;19.20;1.00;;;;;;4832279;29;20045;-44
2023/05/12 02:40:14;;;;;;;4.40;1.17;;;19.20;1.00;;;;;;4840963;29;20050;-44
2023/05/12 02:42:42;;;;;;;1.88;1.08;;;19.20;1.00;;;;;;4841045;29;20054;-43
2023/05/12 02:45:09;;;;;;;2.22;1.20;;;19.20;1.00;;;;;;4832124;29;20042;-43
2023/05/12 02:47:37;;;;;;;3.13;1.38;;;19.20;1.00;;;;;;4839699;29;20558;-43
2023/05/12 02:50:05;;;;;;;2.22;1.00;;;19.20;1.00;;;;;;4839867;29;20574;-44
2023/05/12 02:52:32;;;;;;;1.55;0.85;;;19.20;1.00;;;;;;4836248;29;20137;-43
2023/05/12 02:54:59;;;;;;;2.47;1.02;;;19.20;1.00;;;;;;4827677;29;20467;-44
2023/05/12 02:57:31;;;;;;;1.38;0.70;;;19.20;1.00;;;;;;4829762;29;20054;-44
2023/05/12 03:00:00;;;;;;;3.03;0.93;;;19.20;1.00;;;;;;4835308;29;20058;-44
2023/05/12 03:02:27;;;;;;;2.53;1.02;;;19.20;1.00;;;;;;4839392;29;20050;-45
2023/05/12 03:04:54;;;;;;;2.72;1.13;;;19.20;1.00;;;;;;4839523;29;20046;-44
2023/05/12 03:07:21;;;;;;;1.38;0.90;;;19.20;1.00;;;;;;4833103;29;20042;-44
2023/05/12 03:09:48;;;;;;;1.67;0.95;;;19.20;1.00;;;;;;4839667;29;20046;-44
2023/05/12 03:12:15;;;;;;;2.13;0.75;;;19.20;1.00;;;;;;4832996;29;20046;-43
2023/05/12 03:14:42;;;;;;;1.75;0.95;;;19.20;1.00;;;;;;4839445;29;20054;-44
2023/05/12 03:17:09;;;;;;;3.03;1.10;;;19.10;1.00;;;;;;4840659;29;20084;-44
2023/05/12 03:19:36;;;;;;;4.72;1.10;;;19.10;1.00;;;;;;4833109;29;20042;-44
2023/05/12 03:22:03;;;;;;;1.00;0.60;;;19.10;1.00;;;;;;4832009;29;20081;-44
2023/05/12 03:24:31;;;;;;;2.17;1.45;;;19.20;1.00;;;;;;4829384;29;20050;-43
2023/05/12 03:26:58;;;;;;;1.30;0.82;;;19.10;1.00;;;;;;4834451;29;20050;-46
2023/05/12 03:29:25;;;;;;;2.00;0.80;;;19.10;1.00;;;;;;4837472;29;20475;-43
2023/05/12 03:31:52;;;;;;;0.93;0.70;;;19.10;1.00;;;;;;4828678;29;20050;-43
2023/05/12 03:34:19;;;;;;;1.98;0.75;;;19.10;1.00;;;;;;4820894;29;20046;-45
2023/05/12 03:36:47;;;;;;;1.23;0.80;;;19.10;1.00;;;;;;4833154;29;20056;-44
2023/05/12 03:39:14;;;;;;;1.35;0.75;;;19.10;1.00;;;;;;4839178;29;20140;-43
2023/05/12 03:41:41;;;;;;;2.45;1.02;;;19.10;1.00;;;;;;4839268;29;20131;-43
2023/05/12 03:44:08;;;;;;;2.88;0.80;;;19.10;1.00;;;;;;4831713;29;20054;-44
2023/05/12 03:46:35;;;;;;;2.35;1.00;;;19.10;1.00;;;;;;4835890;29;20058;-44
2023/05/12 03:49:02;;;;;;;2.35;0.95;;;19.10;1.00;;;;;;4827374;29;20054;-44
2023/05/12 03:51:30;;;;;;;2.08;1.10;;;19.10;1.00;;;;;;4831506;29;20049;-44
2023/05/12 03:53:57;;;;;;;1.50;0.90;;;19.10;1.00;;;;;;4831690;29;20062;-44
2023/05/12 03:56:23;;;;;;;1.20;0.80;;;19.10;1.00;;;;;;4838677;29;20046;-45
2023/05/12 03:58:50;;;;;;;2.85;0.68;;;19.00;1.00;;;;;;4833007;29;20046;-43
2023/05/12 04:01:17;;;;;;;1.75;0.95;;;19.10;1.00;;;;;;4831461;29;20222;-44
2023/05/12 04:03:44;;;;;;;2.03;0.80;;;19.00;1.00;;;;;;4829691;29;20073;-45
2023/05/12 04:06:11;;;;;;;5.22;0.70;;;19.00;1.00;;;;;;4832620;29;20915;-45
2023/05/12 04:08:38;;;;;;;1.92;1.10;;;19.00;1.00;;;;;;4836091;29;20041;-44
2023/05/12 04:11:08;;;;;;;4.07;1.13;;;19.00;1.00;;;;;;4835414;29;20081;-44
2023/05/12 04:13:35;;;;;;;1.27;0.77;;;19.00;1.00;;;;;;4841502;29;20053;-44
2023/05/12 04:16:01;;;;;;;2.40;1.08;;;19.00;1.00;;;;;;4842670;29;20048;-44
2023/05/12 04:18:29;;;;;;;2.25;1.40;;;19.00;1.00;;;;;;4839257;29;20506;-44
2023/05/12 04:20:56;;;;;;;2.00;1.10;;;19.00;1.00;;;;;;4830495;29;20133;-43
2023/05/12 04:23:23;;;;;;;3.75;1.17;;;19.00;1.00;;;;;;4833100;29;20506;-43
2023/05/12 04:25:50;;;;;;;3.38;1.02;;;19.00;1.00;;;;;;4834261;29;20082;-44
2023/05/12 04:28:16;;;;;;;3.75;1.25;;;19.00;1.00;;;;;;4826102;29;20046;-43
2023/05/12 04:30:44;;;;;;;2.08;1.40;;;19.00;1.00;;;;;;4834373;29;20069;-45
2023/05/12 04:33:11;;;;;;;2.10;1.10;;;19.00;1.00;;;;;;4841850;29;20042;-44
2023/05/12 04:35:39;;;;;;;3.28;1.30;;;19.00;1.00;;;;;;4841630;29;20082;-43
2023/05/12 04:38:05;;;;;;;3.90;1.17;;;19.00;1.00;;;;;;4835655;29;20038;-44
2023/05/12 04:40:32;;;;;;;3.88;1.35;;;18.90;1.00;;;;;;4826743;29;20073;-44
2023/05/12 04:43:02;;;;;;;5.93;2.17;;;19.00;1.00;;;;;;4834157;29;20131;-43
2023/05/12 04:45:30;;;;;;;2.85;1.02;;;19.00;1.00;;;;;;4826175;29;20046;-44
2023/05/12 04:47:57;;;;;;;3.30;1.30;;;19.00;1.00;;;;;;4841742;29;20078;-45
2023/05/12 04:50:23;;;;;;;1.80;1.23;;;18.90;1.00;;;;;;4833126;29;20535;-43
2023/05/12 04:52:51;;;;;;;2.63;1.50;;;19.00;1.00;;;;;;4829048;29;20110;-44
2023/05/12 04:55:17;;;;;;;3.75;1.65;;;18.90;1.00;;;;;;4833503;29;20038;-43
2023/05/12 04:57:45;;;;;;;4.63;2.15;;;18.90;1.00;;;;;;4837808;29;20073;-44
2023/05/12 05:00:12;;;;;;;5.57;1.55;;;18.90;1.00;;;;;;4832036;29;20057;-44
2023/05/12 05:02:40;;;;;;;4.15;1.63;;;18.90;1.00;;;;;;4833596;29;20046;-43
2023/05/12 05:05:08;;;;;;;6.18;2.30;;;18.90;1.00;;;;;;4827462;29;20047;-44
2023/05/12 05:07:35;;;;;;;4.10;1.30;;;18.90;1.00;;;;;;4825033;29;20050;-43
2023/05/12 05:10:02;;;;;;;4.32;2.10;;;18.90;1.00;;;;;;4841303;29;20050;-43
2023/05/12 05:12:29;;;;;;;4.15;1.88;;;18.90;1.00;;;;;;4824378;29;20088;-43
2023/05/12 05:14:56;;;;;;;5.43;2.10;;;18.90;1.00;;;;;;4822151;29;20042;-44
2023/05/12 05:17:23;;;;;;;4.03;2.33;;;18.90;1.00;;;;;;4830231;29;20138;-43
2023/05/12 05:19:51;;;;;;;4.57;2.83;;;18.90;1.00;;;;;;4827191;29;20046;-43
2023/05/12 05:22:28;;;;;;;7.07;3.30;;;18.90;1.00;;;;;;4840988;29;20046;-44
2023/05/12 05:24:55;;;;;;;7.07;2.40;;;18.90;1.00;;;;;;4836307;29;20110;-44
2023/05/12 05:27:21;;;;;;;4.47;2.45;;;18.90;1.00;;;;;;4830547;29;20081;-44
2023/05/12 05:29:49;;;;;;;5.90;2.67;;;18.90;1.00;;;;;;4829551;29;20484;-43
2023/05/12 05:32:17;;;;;;;5.47;2.50;;;18.90;1.00;;;;;;4830146;29;20094;-46
2023/05/12 05:34:43;;;;;;;5.88;3.58;;;18.90;1.00;;;;;;4833137;29;20038;-45
2023/05/12 05:37:10;;;;;;;5.95;2.60;;;18.90;1.00;;;;;;4842013;29;20099;-45
2023/05/12 05:39:37;;;;;;;5.63;2.75;;;18.80;1.00;;;;;;4834186;29;20053;-44
2023/05/12 05:42:04;;;;;;;7.53;3.03;;;18.90;1.00;;;;;;4840892;29;20046;-43
2023/05/12 05:44:31;;;;;;;5.22;3.17;;;18.90;1.00;;;;;;4823787;29;20054;-44
2023/05/12 05:46:59;;;;;;;6.80;3.63;;;18.80;1.00;;;;;;4835044;29;20043;-44
2023/05/12 05:49:26;;;;;;;9.32;3.70;;;18.80;1.00;;;;;;4832769;29;20133;-43
2023/05/12 05:51:54;;;;;;;6.40;3.58;;;18.80;1.00;;;;;;4840718;29;20046;-43
2023/05/12 05:54:24;;;;;;;7.43;3.28;;;18.80;1.00;;;;;;4840352;29;20098;-43
2023/05/12 05:56:51;;;;;;;7.32;4.28;;;18.80;1.00;;;;;;4832800;29;20498;-43
2023/05/12 05:59:18;;;;;;;8.20;3.65;;;18.80;1.00;;;;;;4825562;29;20130;-43
2023/05/12 06:01:45;;;;;;;6.15;3.25;;;18.80;1.00;;;;;;4826938;29;20077;-44
2023/05/12 06:04:12;;;;;;;8.65;4.43;;;18.80;1.00;;;;;;4833879;29;20447;-43
2023/05/12 06:06:39;;;;;;;10.50;4.72;;;18.80;1.00;;;;;;4831813;29;20050;-44
2023/05/12 06:09:07;;;;;;;8.35;3.95;;;18.80;1.00;;;;;;4840248;29;20046;-44
2023/05/12 06:11:34;;;;;;;9.02;4.53;;;18.80;1.00;;;;;;4838154;29;20052;-44
2023/05/12 06:14:01;;;;;;;5.88;3.17;;;18.80;1.00;;;;;;4829630;29;20099;-43
2023/05/12 06:16:28;;;;;;;7.55;4.68;;;18.80;1.00;;;;;;4830208;29;20057;-44
2023/05/12 06:18:55;;;;;;;7.47;4.15;;;18.80;1.00;;;;;;4833875;29;20398;-44
2023/05/12 06:21:21;;;;;;;7.88;4.15;;;18.80;1.00;;;;;;4833727;29;20125;-43
2023/05/12 06:23:50;;;;;;;10.73;4.30;;;18.80;1.00;;;;;;4830644;29;20403;-44
2023/05/12 06:26:17;;;;;;;6.25;3.80;;;18.80;1.00;;;;;;4836270;29;20502;-44
2023/05/12 06:28:44;;;;;;;6.63;4.00;;;18.80;1.00;;;;;;4833538;29;20084;-44
2023/05/12 06:31:10;;;;;;;7.57;4.32;;;18.80;1.00;;;;;;4839942;29;20452;-44
2023/05/12 06:33:38;;;;;;;10.82;4.47;;;18.80;1.00;;;;;;4831943;29;20075;-44
2023/05/12 06:36:05;;;;;;;7.72;4.68;;;18.80;1.00;;;;;;4839748;29;20049;-43
2023/05/12 06:38:32;;;;;;;10.80;5.22;;;18.80;1.00;;;;;;4832066;29;20072;-43
2023/05/12 06:40:59;;;;;;;8.23;5.07;;;18.80;1.00;;;;;;4827743;29;20494;-43
2023/05/12 06:43:26;;;;;;;10.23;4.85;;;18.80;1.00;;;;;;4839538;29;20410;-46
2023/05/12 06:45:55;;;;;;;8.63;4.40;;;18.80;1.00;;;;;;4839544;29;20042;-45
2023/05/12 06:48:23;;;;;;;8.70;4.55;;;18.80;1.00;;;;;;4832007;29;20499;-44
2023/05/12 06:50:49;;;;;;;9.25;5.10;;;18.80;1.00;;;;;;4830388;29;20117;-43
2023/05/12 06:53:17;;;;;;;9.98;4.28;;;18.70;1.00;;;;;;4828850;29;20484;-46
2023/05/12 06:55:45;;;;;;;9.70;4.75;;;18.80;1.00;;;;;;4829933;29;20046;-43
2023/05/12 06:58:12;;;;;;;9.00;4.68;;;18.80;1.00;;;;;;4834972;29;20050;-45
2023/05/12 07:00:38;;;;;;;10.05;5.13;;;18.80;1.00;;;;;;4838909;29;20077;-43
2023/05/12 07:03:08;;;;;;;11.88;5.03;;;18.80;1.00;;;;;;4835752;29;20125;-44
2023/05/12 07:05:36;;;;;;;11.65;5.28;;;18.70;1.00;;;;;;4840398;29;20050;-44
2023/05/12 07:08:03;;;;;;;9.88;5.65;;;18.70;1.00;;;;;;4840720;29;20506;-46
2023/05/12 07:10:30;;;;;;;8.13;5.03;;;18.70;1.00;;;;;;4839857;29;20073;-43
2023/05/12 07:12:57;;;;;;;9.15;5.47;;;18.70;1.00;;;;;;4826692;29;20083;-45
2023/05/12 07:15:24;;;;;;;9.57;5.85;;;18.70;1.00;;;;;;4832796;29;20048;-43
2023/05/12 07:17:51;;;;;;;8.95;4.93;;;18.70;1.00;;;;;;4837489;29;20419;-44
2023/05/12 07:20:18;;;;;;;8.25;4.88;;;18.80;1.00;;;;;;4836851;29;20042;-44
2023/05/12 07:22:44;;;;;;;10.40;5.40;;;18.70;1.00;;;;;;4837850;29;20050;-46
2023/05/12 07:25:12;;;;;;;9.68;4.75;;;18.70;1.00;;;;;;4822156;29;20046;-43
2023/05/12 07:27:39;;;;;;;9.63;5.40;;;18.70;1.00;;;;;;4829654;29;20066;-43
2023/05/12 07:30:06;;;;;;;8.07;5.03;;;18.70;1.00;;;;;;4827861;29;20558;-43
2023/05/12 07:32:33;;;;;;;8.63;5.40;;;18.70;1.00;;;;;;4832796;29;20157;-44
2023/05/12 07:35:00;;;;;;;9.50;5.10;;;18.70;1.00;;;;;;4832777;29;20123;-46
2023/05/12 07:37:27;;;;;;;12.60;6.28;;;18.70;1.00;;;;;;4841025;29;20118;-43
2023/05/12 07:39:53;;;;;;;13.20;6.30;;;18.70;1.00;;;;;;4844081;29;20050;-43
2023/05/12 07:42:21;;;;;;;10.35;4.97;;;18.70;1.00;;;;;;4838853;29;20102;-44
2023/05/12 07:44:48;;;;;;;8.57;5.13;;;18.70;1.00;;;;;;4833192;29;20042;-44
2023/05/12 07:47:15;;;;;;;9.80;6.15;;;18.70;1.00;;;;;;4833206;29;20093;-43
2023/05/12 07:49:41;;;;;;;13.18;6.10;;;18.70;1.00;;;;;;4840560;29;20077;-43
2023/05/12 07:52:08;;;;;;;9.73;5.95;;;18.70;1.00;;;;;;4831907;29;20061;-43
2023/05/12 07:54:35;;;;;;;9.05;5.43;;;18.70;1.00;;;;;;4840322;29;20050;-44
2023/05/12 07:57:02;;;;;;;9.75;5.72;;;18.70;1.00;;;;;;4830095;29;20569;-44
2023/05/12 07:59:29;;;;;;;12.23;6.50;;;18.70;1.00;;;;;;4828327;29;20095;-44
2023/05/12 08:01:55;;;;;;;9.10;4.90;;;18.70;1.00;;;;;;4840163;29;20046;-44
2023/05/12 08:04:22;;;;;;;7.95;5.60;;;18.70;1.00;;;;;;4839808;29;20486;-45
2023/05/12 08:06:49;;;;;;;10.25;5.20;;;18.70;1.00;;;;;;4843376;29;20046;-45
2023/05/12 08:09:16;;;;;;;8.73;5.43;;;18.70;1.00;;;;;;4843561;29;20114;-44
2023/05/12 08:11:42;;;;;;;10.82;5.22;;;18.70;1.00;;;;;;4833850;29;20058;-44
2023/05/12 08:14:13;;;;;;;14.18;5.80;;;18.70;1.00;;;;;;4832719;29;20087;-44
2023/05/12 08:16:41;;;;;;;10.23;5.47;;;18.70;1.00;;;;;;4841759;29;20046;-44
2023/05/12 08:19:08;;;;;;;8.73;5.43;;;18.70;1.00;;;;;;4838313;29;20047;-44
2023/05/12 08:21:35;;;;;;;11.77;6.13;;;18.70;1.00;;;;;;4832513;29;20042;-45
2023/05/12 08:24:01;;;;;;;13.05;5.18;;;18.70;1.00;;;;;;4829404;29;20038;-43
2023/05/12 08:26:28;;;;;;;10.45;5.65;;;18.70;1.00;;;;;;4843177;29;20049;-46
2023/05/12 08:29:00;;;;;;;11.97;5.93;;;18.70;1.00;;;;;;4835980;29;20254;-45
2023/05/12 08:31:27;;;;;;;9.38;5.32;;;18.70;1.00;;;;;;4843451;29;20353;-43
2023/05/12 08:33:54;;;;;;;11.13;5.47;;;18.70;1.00;;;;;;4835682;29;20121;-44
2023/05/12 08:36:36;;;;;;;10.00;5.55;;;18.70;1.00;;;;;;4834463;29;20458;-44
2023/05/12 08:39:03;;;;;;;10.30;5.95;;;18.70;1.00;;;;;;4832447;29;20071;-45
2023/05/12 08:41:43;;;;;;;11.35;5.68;;;18.70;1.00;;;;;;4835206;29;20049;-45
2023/05/12 08:44:11;;;;;;;7.97;5.80;;;18.70;1.00;;;;;;4829987;29;20130;-45
2023/05/12 08:46:38;;;;;;;11.65;5.22;;;18.70;1.00;;;;;;4842651;29;20045;-43
2023/05/12 08:49:10;;;;;;;9.65;5.88;;;18.70;1.00;;;;;;4841887;29;20154;-43
2023/05/12 08:51:40;;;;;;;10.55;5.60;;;18.70;1.00;;;;;;4834178;29;20042;-43
2023/05/12 08:54:09;;;;;;;10.70;5.55;;;18.70;1.00;;;;;;4832093;29;20042;-43
2023/05/12 08:56:37;;;;;;;11.50;5.57;;;18.80;1.00;;;;;;4831832;29;20123;-43
2023/05/12 08:59:09;;;;;;;7.90;5.20;;;18.70;1.00;;;;;;4824362;29;20072;-44
2023/05/12 09:01:37;;;;;;;9.85;5.53;;;18.80;1.00;;;;;;4831851;29;20125;-43
2023/05/12 09:04:04;;;;;;;11.43;5.72;;;18.80;1.00;;;;;;4824594;29;20035;-43
2023/05/12 09:06:32;;;;;;;11.43;6.03;;;18.80;1.00;;;;;;4823965;29;20046;-45
2023/05/12 09:08:59;;;;;;;14.20;6.13;;;18.80;1.00;;;;;;4835593;29;20049;-46
2023/05/12 09:11:26;;;;;;;9.65;5.43;;;18.70;1.00;;;;;;4842793;29;20487;-45
2023/05/12 09:14:08;;;;;;;9.00;5.68;;;18.70;1.00;;;;;;4827036;29;20522;-46
2023/05/12 09:16:47;;;;;;;9.93;5.90;;;18.80;1.00;;;;;;4834869;29;20118;-43
2023/05/12 09:19:19;;;;;;;8.98;5.43;;;18.80;1.00;;;;;;4842549;29;20513;-43
2023/05/12 09:21:47;;;;;;;10.60;6.22;;;18.70;1.00;;;;;;4824109;29;20076;-46
2023/05/12 09:24:13;;;;;;;11.18;6.43;;;18.80;1.00;;;;;;4836923;29;20074;-44
2023/05/12 09:26:50;;;;;;;8.45;5.05;;;18.80;1.00;;;;;;4833418;29;20452;-44
2023/05/12 09:29:18;;;;;;;13.60;5.75;;;18.80;1.00;;;;;;4824120;29;20042;-47
2023/05/12 09:32:00;;;;;;;9.27;5.25;;;18.80;1.00;;;;;;4835111;29;20106;-43
2023/05/12 09:34:30;;;;;;;10.02;5.72;;;18.80;1.00;;;;;;4834780;29;20080;-43
2023/05/12 09:37:05;;;;;;;10.75;6.05;;;18.80;1.00;;;;;;4816590;29;20049;-44
2023/05/12 09:39:32;;;;;;;12.05;5.82;;;18.80;1.00;;;;;;4838876;29;20077;-43
2023/05/12 09:41:59;;;;;;;10.60;5.55;;;18.80;1.00;;;;;;4837747;29;20041;-44
2023/05/12 09:44:29;;;;;;;9.57;4.78;;;18.80;1.00;;;;;;4827482;29;20042;-43
2023/05/12 09:47:05;;;;;;;11.80;5.65;;;18.80;1.00;;;;;;4841441;29;20052;-43
2023/05/12 09:49:32;;;;;;;10.75;5.50;;;18.80;1.00;;;;;;4834075;29;20050;-43
2023/05/12 09:51:59;;;;;;;10.88;4.90;;;18.80;1.00;;;;;;4841706;29;20042;-43
2023/05/12 09:54:30;;;;;;;13.90;5.97;;;18.80;1.00;;;;;;4827321;29;20044;-44
2023/05/12 09:56:59;;;;;;;10.32;5.20;;;18.80;1.00;;;;;;4838304;29;20038;-44
2023/05/12 09:59:30;;;;;;;10.93;5.25;;;18.80;1.00;;;;;;4830204;29;20042;-44
2023/05/12 10:01:59;;;;;;;9.43;4.97;;;18.80;1.00;;;;;;4830619;29;20042;-45
2023/05/12 10:04:38;;;;;;;9.85;5.97;;;18.80;1.00;;;;;;4823326;29;20042;-44
2023/05/12 10:07:11;;;;;;;9.73;4.97;;;18.80;1.00;;;;;;4816580;29;20555;-45
2023/05/12 10:09:41;;;;;;;8.00;5.13;;;18.90;1.00;;;;;;4831461;29;20045;-44
2023/05/12 10:12:08;;;;;;;8.32;4.95;;;18.80;1.00;;;;;;4840976;29;20544;-44
2023/05/12 10:14:36;;;;;;;11.02;5.57;;;18.90;1.00;;;;;;4841111;29;20042;-44
2023/05/12 10:17:05;;;;;;;10.25;5.07;;;18.80;1.00;;;;;;4841243;29;20034;-46
2023/05/12 10:19:34;;;;;;;8.25;5.30;;;18.90;1.00;;;;;;4840200;29;20081;-43
2023/05/12 10:22:01;;;;;;;12.32;5.53;;;18.80;1.00;;;;;;4819526;29;20149;-44
2023/05/12 10:24:28;;;;;;;8.23;4.88;;;18.80;1.00;;;;;;4834189;29;20080;-44
2023/05/12 10:26:55;;;;;;;8.90;5.07;;;18.80;1.00;;;;;;4832887;29;20042;-43
2023/05/12 10:29:28;;;;;;;10.60;5.05;;;18.80;1.00;;;;;;4841275;29;20111;-44
2023/05/12 10:31:56;;;;;;;9.82;4.78;;;18.90;1.00;;;;;;4826061;29;20038;-43
2023/05/12 10:34:29;;;;;;;10.23;5.35;;;18.90;1.00;;;;;;4840890;29;20042;-44
2023/05/12 10:36:57;;;;;;;9.77;5.03;;;18.90;1.00;;;;;;4825767;29;20080;-44
2023/05/12 10:39:28;;;;;;;9.13;5.15;;;18.90;1.00;;;;;;4834819;29;20130;-44
2023/05/12 10:42:06;;;;;;;11.25;6.40;;;18.90;1.00;;;;;;4828984;29;20053;-44
2023/05/12 10:44:34;;;;;;;9.27;5.38;;;18.90;1.00;;;;;;4833369;29;20325;-45
2023/05/12 10:47:10;;;;;;;10.82;5.90;;;18.90;1.00;;;;;;4837776;29;20511;-45
2023/05/12 10:49:39;;;;;;;11.43;5.32;;;18.90;1.00;;;;;;4831100;29;20083;-46
2023/05/12 10:52:06;;;;;;;10.30;5.35;;;18.90;1.00;;;;;;4841021;29;20076;-44
2023/05/12 10:54:44;;;;;;;8.05;4.82;;;18.90;1.00;;;;;;4833247;29;20038;-45
2023/05/12 10:57:19;;;;;;;8.90;5.15;;;18.90;1.00;;;;;;4828295;29;20048;-45
2023/05/12 10:59:51;;;;;;;13.32;6.55;;;18.90;1.00;;;;;;4839368;29;20056;-46
2023/05/12 11:02:24;;;;;;;8.48;5.13;;;18.90;1.00;;;;;;4828274;29;20128;-46
2023/05/12 11:05:02;;;;;;;6.93;5.00;;;19.00;1.00;;;;;;4825622;29;20118;-45
2023/05/12 11:07:32;;;;;;;8.35;4.53;;;18.90;1.00;;;;;;4826634;29;20079;-46
2023/05/12 11:10:02;;;;;;;9.88;5.05;;;19.00;1.00;;;;;;4837875;29;20110;-44
2023/05/12 11:12:32;;;;;;;8.35;4.00;;;18.90;1.00;;;;;;4821006;29;20408;-47
2023/05/12 11:15:00;;;;;;;9.82;5.20;;;19.00;1.00;;;;;;4832949;29;20038;-44
2023/05/12 11:17:27;;;;;;;6.72;4.75;;;19.00;1.00;;;;;;4834354;29;20554;-44
2023/05/12 11:19:55;;;;;;;8.88;4.40;;;18.90;1.00;;;;;;4839797;29;20042;-46
2023/05/12 11:22:23;;;;;;;10.82;5.50;;;18.90;1.00;;;;;;4835208;29;20043;-45
2023/05/12 11:24:51;;;;;;;6.90;4.80;;;19.00;1.00;;;;;;4831435;29;20046;-45
2023/05/12 11:27:21;;;;;;;9.35;4.32;;;19.00;1.00;;;;;;4835508;29;20102;-45
2023/05/12 11:29:59;;;;;;;9.02;4.35;;;18.90;1.00;;;;;;4838977;29;20042;-45
2023/05/12 11:32:26;;;;;;;10.57;5.15;;;19.00;1.00;;;;;;4834725;29;20043;-46
2023/05/12 11:34:53;;;;;;;8.70;5.25;;;19.00;1.00;;;;;;4829677;29;20121;-47
2023/05/12 11:37:21;;;;;;;9.65;4.65;;;19.00;1.00;;;;;;4829905;29;20072;-45
2023/05/12 11:39:48;;;;;;;7.90;4.90;;;19.00;1.00;;;;;;4829697;29;20054;-45
2023/05/12 11:42:14;;;;;;;7.03;4.53;;;19.00;1.00;;;;;;4830101;29;20445;-44
2023/05/12 11:44:47;;;;;;;8.75;4.93;;;19.00;1.00;;;;;;4823021;29;20081;-46
2023/05/12 11:47:15;;;;;;;7.13;5.30;;;19.00;1.00;;;;;;4832982;29;20052;-44
2023/05/12 11:49:53;;;;;;;7.28;4.25;;;19.00;1.00;;;;;;4840390;29;20046;-44
2023/05/12 11:52:23;;;;;;;9.98;4.15;;;19.00;1.00;;;;;;4840687;29;20087;-46
2023/05/12 11:54:59;;;;;;;9.52;5.30;;;19.00;1.00;;;;;;4823729;29;20080;-45
2023/05/12 11:57:27;;;;;;;6.47;5.05;;;19.00;1.00;;;;;;4829789;29;20085;-44
2023/05/12 11:59:59;;;;;;;6.93;5.00;;;19.00;1.00;;;;;;4837037;29;20046;-44
2023/05/12 12:02:27;;;;;;;7.38;4.38;;;19.00;1.00;;;;;;4835673;29;20038;-47
2023/05/12 12:04:54;;;;;;;8.48;4.85;;;19.00;1.00;;;;;;4832475;29;20077;-45
2023/05/12 12:07:29;;;;;;;10.98;4.88;;;19.10;1.00;;;;;;4832707;29;20398;-47
2023/05/12 12:09:56;;;;;;;6.22;5.07;;;19.10;1.00;;;;;;4830637;29;20255;-45
2023/05/12 12:12:23;;;;;;;6.80;4.53;;;19.10;1.00;;;;;;4827595;29;20498;-44
2023/05/12 12:14:49;;;;;;;8.10;4.90;;;19.10;1.00;;;;;;4837446;29;20081;-44
2023/05/12 12:17:16;;;;;;;6.93;4.75;;;19.10;1.00;;;;;;4826376;29;20053;-45
2023/05/12 12:19:43;;;;;;;6.55;4.68;;;19.10;1.00;;;;;;4840004;29;20046;-45
2023/05/12 12:22:10;;;;;;;10.32;5.90;;;19.10;1.00;;;;;;4839096;29;20041;-45
2023/05/12 12:24:37;;;;;;;8.30;4.97;;;19.10;1.00;;;;;;4834548;29;20439;-47
2023/05/12 12:27:04;;;;;;;7.53;4.88;;;19.10;1.00;;;;;;4827931;29;20098;-44
2023/05/12 12:29:31;;;;;;;9.40;5.32;;;19.10;1.00;;;;;;4836912;29;20070;-45
2023/05/12 12:31:58;;;;;;;7.68;4.38;;;19.10;1.00;;;;;;4827083;29;20400;-47
2023/05/12 12:34:25;;;;;;;9.25;5.28;;;19.10;1.00;;;;;;4837402;29;20057;-45
2023/05/12 12:36:51;;;;;;;7.93;4.55;;;19.20;1.00;;;;;;4839839;29;20046;-45
2023/05/12 12:39:18;;;;;;;10.13;4.78;;;19.20;1.00;;;;;;4832533;29;20073;-47
2023/05/12 12:41:46;;;;;;;8.88;5.57;;;19.20;1.00;;;;;;4840351;29;20053;-45
2023/05/12 12:44:13;;;;;;;8.70;4.97;;;19.20;1.00;;;;;;4835281;29;20455;-45
2023/05/12 12:46:40;;;;;;;11.50;4.85;;;19.20;1.00;;;;;;4828588;29;20155;-44
2023/05/12 12:49:07;;;;;;;9.55;4.85;;;19.20;1.00;;;;;;4820773;29;20090;-46
2023/05/12 12:51:35;;;;;;;8.45;5.25;;;19.20;1.00;;;;;;4835512;29;20057;-46
2023/05/12 12:54:11;;;;;;;5.65;4.72;;;19.20;1.00;;;;;;4831561;29;20038;-45
2023/05/12 12:56:38;;;;;;;11.80;5.35;;;19.20;1.00;;;;;;4831647;29;20073;-44
2023/05/12 12:59:05;;;;;;;8.27;5.25;;;19.20;1.00;;;;;;4834925;29;20042;-46